• Join FlightAware (Why Join?)
  • Login
  • US Flag 
05:19AM EST


 

Airport Tracker/Info


-or-


 

Live Flight TrackerFlight Track Log ✈ KAP910 ✈ 07-May-2013 ✈ KHYA - KLEB

Flight Track Log - Related Links

Times and Time Zones

All times are in EDT time to prevent confusion due to time zone crossing. See the KAP910 flight status page for this flight to view local times or setup timezone preferences in your user account.

Time Position Orientation Groundspeed Altitude Reporting Facility
EDT Latitude Longitude Course Direction KTS MPH feet Rate Location/Type
06:59AM 41.6544 -70.5064 270° West 147 169 3,900  Level Boston Center
06:59AM 41.6550 -70.5369 271° West 138 159 4,500 840 Climbing Boston Center
07:00AM 41.6619 -70.5783 283° West 138 159 5,200 720 Climbing Boston Center
07:01AM 41.6832 -70.6655 280° West  Level FlightAware Approximate
07:01AM 41.6669 -70.6336 277° West 141 162 5,900  Level Boston Center
07:02AM 41.6834 -70.7322 270° West  Level FlightAware Approximate
07:02AM 41.6822 -70.6806 294° West 150 173 6,700  Level Boston Center
07:03AM 41.6834 -70.7990 270° West  Level FlightAware Approximate
07:03AM 41.7203 -70.7072 332° Northwest 153 176 7,400  Level Boston Center
07:04AM 41.6833 -70.8658 270° West  Level FlightAware Approximate
07:04AM 41.7561 -70.7397 326° Northwest 155 178 8,200  Level Boston Center
07:05AM 41.7961 -70.7692 331° Northwest 160 184 8,500 120 Climbing Boston Center
07:06AM 41.8447 -70.8125 326° Northwest 185 213 8,500  Level Boston Center
07:07AM 41.8911 -70.8478 330° Northwest 192 221 8,500  Level Boston Center
07:09AM 41.9667 -70.9167 326° Northwest 179 206 8,500  Level KA90
07:10AM 42.0167 -70.9500 334° Northwest 177 204 8,500  Level KA90
07:11AM 42.0500 -70.9833 323° Northwest 178 205 8,500  Level KA90
07:12AM 42.1000 -71.0167 334° Northwest 179 206 8,500  Level KA90
07:13AM 42.1500 -71.0500 334° Northwest 177 204 8,500  Level KA90
07:14AM 42.1833 -71.0833 323° Northwest 178 205 8,500  Level KA90
07:15AM 42.2333 -71.1167 334° Northwest 179 206 8,500  Level KA90
07:16AM 42.2667 -71.1500 324° Northwest 177 204 8,500  Level KA90
07:17AM 42.3167 -71.1833 334° Northwest 178 205 8,500  Level KA90
07:18AM 42.3500 -71.2167 324° Northwest 177 204 8,500  Level KA90
07:19AM 42.4000 -71.2500 334° Northwest 177 204 8,500  Level KA90
07:20AM 42.4333 -71.3000 312° West 175 201 8,500  Level KA90
07:21AM 42.4833 -71.3333 334° Northwest 175 201 8,500  Level KA90
07:22AM 42.5167 -71.3667 324° Northwest 173 199 8,500  Level KA90
07:23AM 42.5667 -71.4000 334° Northwest 173 199 8,500  Level KA90
07:24AM 42.6000 -71.4333 324° Northwest 175 201 8,500  Level KA90
07:25AM 42.6500 -71.4667 334° Northwest 176 203 8,500  Level KA90
07:26AM 42.6833 -71.5000 324° Northwest 176 203 8,500  Level KA90
07:27AM 42.7167 -71.5333 324° Northwest 176 203 8,500  Level KA90
07:28AM 42.7667 -71.5667 334° Northwest 175 201 8,500  Level KA90
07:29AM 42.8000 -71.6000 324° Northwest 174 200 8,500  Level KA90
07:30AM 42.8500 -71.6333 334° Northwest 171 197 8,500  Level KA90
07:31AM 42.8833 -71.6667 324° Northwest 172 198 8,500  Level KA90
07:32AM 42.9167 -71.7000 324° Northwest 170 196 8,500  Level KA90
07:33AM 42.9667 -71.7333 334° Northwest 171 197 8,500  Level KA90
07:34AM 43.0000 -71.7667 324° Northwest 170 196 8,500  Level KA90
07:35AM 43.0333 -71.8000 324° Northwest 170 196 8,500  Level KA90
07:36AM 43.0833 -71.8333 334° Northwest 170 196 8,500 -60 Level KA90
07:37AM 43.1167 -71.8667 324° Northwest 172 198 8,400 -240 Descending KA90
07:38AM 43.1597 -71.9050 327° Northwest 165 190 8,100 -480 Descending Boston Center
07:39AM 43.2142 -71.9500 329° Northwest 178 205 7,500 -540 Descending Boston Center
07:40AM 43.2519 -71.9811 329° Northwest 183 211 7,000 -600 Descending Boston Center
07:41AM 43.3000 -72.0236 327° Northwest 183 211 6,400 -600 Descending Boston Center
07:42AM 43.3375 -72.0547 329° Northwest 183 211 5,900 -600 Descending Boston Center
07:43AM 43.3856 -72.0944 329° Northwest 183 211 5,200 -720 Descending Boston Center